Steirman, Idaho
Current Conditions -  °F | °C
As of 8:53 PM on Monday 20 Oct 2014 (Local Time) from KBOI Reporting Station
Clear Clear  
Wind Chill: 63°   Ceiling: Unl
Heat Index: 63°   Visibility: 10mi
Dew Point: 40°   Wind: 3mph
Humidity: 43%   Direction: 160°SSE
Pressure: 29.7"   Gusts: NA
Location:  43.8008°N, 115.834°W
Report Text: KBOI 210253Z 16003KT 10SM CLR 17/04 A2970 RMK AO2 SLP045 T01720044 58006
Loading
Personal Weather Stations






























Interactive Weather Map
Tropical Storm Tracking
New forecast layout! Learn more

10-Day Weather Forecast

Advertisements
Track Severe Weather on mobile